Time;durP1;ratioP1;P1;durP2;ratioP2;P2;SDS_P1;SDS_P2;PMS_P1;PMS_P2;Temp;Humidity;BMP_temperature;BMP_pressure;BME280_temperature;BME280_humidity;BME280_pressure;Samples;Min_cycle;Max_cycle;Signal;HPM_P1;HPM_P2
2021/08/29 00:01:55;;;;;;;;;;;17.40;91.40;;;;;;4330159;33;43777;-77
2021/08/29 00:04:26;;;;;;;;;;;17.40;91.50;;;;;;4330635;33;46312;-77
2021/08/29 00:06:56;;;;;;;;;;;17.40;91.50;;;;;;4317310;33;44556;-78
2021/08/29 00:09:26;;;;;;;;;;;17.40;91.50;;;;;;4330075;33;43253;-78
2021/08/29 00:12:04;;;;;;;;;;;17.40;91.50;;;;;;4330890;33;42545;-78
2021/08/29 00:14:32;;;;;;;;;;;17.40;91.50;;;;;;4330218;33;43769;-78
2021/08/29 00:17:01;;;;;;;;;;;17.40;91.60;;;;;;4330468;33;43782;-77
2021/08/29 00:19:34;;;;;;;;;;;17.40;91.50;;;;;;4330029;33;42662;-78
2021/08/29 00:22:01;;;;;;;;;;;17.40;91.60;;;;;;4330372;33;43271;-78
2021/08/29 00:24:28;;;;;;;;;;;17.30;91.50;;;;;;4316937;33;44674;-77
2021/08/29 00:26:56;;;;;;;;;;;17.30;91.50;;;;;;4330065;33;43955;-77
2021/08/29 00:29:28;;;;;;;;;;;17.30;91.60;;;;;;4329932;33;44155;-77
2021/08/29 00:31:57;;;;;;;;;;;17.30;91.60;;;;;;4330484;33;43026;-77
2021/08/29 00:34:24;;;;;;;;;;;17.30;91.50;;;;;;4329881;33;43783;-77
2021/08/29 00:36:56;;;;;;;;;;;17.30;91.60;;;;;;4329898;33;43578;-78
2021/08/29 00:39:26;;;;;;;;;;;17.30;91.50;;;;;;4330346;33;44288;-77
2021/08/29 00:41:59;;;;;;;;;;;17.30;91.50;;;;;;4316789;33;46115;-77
2021/08/29 00:44:29;;;;;;;;;;;17.30;91.50;;;;;;4317114;33;43363;-78
2021/08/29 00:46:59;;;;;;;;;;;17.30;91.50;;;;;;4317222;33;43864;-78
2021/08/29 00:49:32;;;;;;;;;;;17.30;91.50;;;;;;4329869;33;44115;-77
2021/08/29 00:52:03;;;;;;;;;;;17.30;91.60;;;;;;4329859;33;42858;-77
2021/08/29 00:54:37;;;;;;;;;;;17.30;91.50;;;;;;4318455;33;43934;-77
2021/08/29 00:57:08;;;;;;;;;;;17.20;91.50;;;;;;4319964;33;43216;-78
2021/08/29 00:59:38;;;;;;;;;;;17.20;91.50;;;;;;4319944;33;44161;-77
2021/08/29 01:02:13;;;;;;;;;;;17.20;91.60;;;;;;4319588;33;43964;-77
2021/08/29 01:05:03;;;;;;;;;;;17.20;91.50;;;;;;4332562;33;42774;-77
2021/08/29 01:07:35;;;;;;;;;;;17.20;91.50;;;;;;4332582;33;43040;-78
2021/08/29 01:10:05;;;;;;;;;;;17.20;91.60;;;;;;4332690;33;45257;-78
2021/08/29 01:12:33;;;;;;;;;;;17.20;91.60;;;;;;4319361;33;42611;-77
2021/08/29 01:15:01;;;;;;;;;;;17.20;91.60;;;;;;4332511;33;44150;-78
2021/08/29 01:17:29;;;;;;;;;;;17.20;91.50;;;;;;4332298;33;43315;-78
2021/08/29 01:20:01;;;;;;;;;;;17.10;91.40;;;;;;4332701;33;43032;-79
2021/08/29 01:22:31;;;;;;;;;;;17.10;91.50;;;;;;4332337;33;44290;-77
2021/08/29 01:24:59;;;;;;;;;;;17.10;91.40;;;;;;4332814;33;46039;-78
2021/08/29 01:27:32;;;;;;;;;;;17.10;91.40;;;;;;4332469;33;44214;-78
2021/08/29 01:30:02;;;;;;;;;;;17.00;91.40;;;;;;4319538;33;43426;-78
2021/08/29 01:32:36;;;;;;;;;;;17.10;91.40;;;;;;4319030;33;44079;-78
2021/08/29 01:35:05;;;;;;;;;;;17.00;91.40;;;;;;4318921;33;44644;-77
2021/08/29 01:37:33;;;;;;;;;;;17.00;91.40;;;;;;4331900;33;45527;-78
2021/08/29 01:40:05;;;;;;;;;;;17.00;91.50;;;;;;4332526;33;44313;-78
2021/08/29 01:42:33;;;;;;;;;;;17.00;91.40;;;;;;4319230;33;43298;-78
2021/08/29 01:45:04;;;;;;;;;;;17.00;91.50;;;;;;4332331;33;44113;-78
2021/08/29 01:47:37;;;;;;;;;;;17.00;91.50;;;;;;4332505;33;45297;-78
2021/08/29 01:50:04;;;;;;;;;;;16.90;91.50;;;;;;4332074;33;43881;-78
2021/08/29 01:52:34;;;;;;;;;;;17.00;91.60;;;;;;4332164;33;44024;-78
2021/08/29 01:55:01;;;;;;;;;;;16.90;91.50;;;;;;4318958;33;43875;-78
2021/08/29 01:57:34;;;;;;;;;;;16.90;91.50;;;;;;4332243;33;43489;-78
2021/08/29 02:00:04;;;;;;;;;;;16.90;91.60;;;;;;4333206;33;20009;-77
2021/08/29 02:02:33;;;;;;;;;;;16.90;91.60;;;;;;4331789;33;43853;-78
2021/08/29 02:05:06;;;;;;;;;;;16.90;91.60;;;;;;4331010;33;43241;-78
2021/08/29 02:07:50;;;;;;;;;;;16.90;91.60;;;;;;4332201;33;43937;-78
2021/08/29 02:10:22;;;;;;;;;;;16.90;91.60;;;;;;4318976;33;43871;-78
2021/08/29 02:12:53;;;;;;;;;;;16.90;91.60;;;;;;4331607;33;43336;-78
2021/08/29 02:15:26;;;;;;;;;;;16.90;91.60;;;;;;4331435;33;43366;-78
2021/08/29 02:18:00;;;;;;;;;;;16.90;91.60;;;;;;4318692;33;42639;-78
2021/08/29 02:20:29;;;;;;;;;;;16.80;91.60;;;;;;4331985;33;43919;-78
2021/08/29 02:23:02;;;;;;;;;;;16.80;91.60;;;;;;4318305;33;44096;-78
2021/08/29 02:25:34;;;;;;;;;;;16.80;91.60;;;;;;4331418;33;42799;-77
2021/08/29 02:28:04;;;;;;;;;;;16.80;91.70;;;;;;4331647;33;43311;-77
2021/08/29 02:30:33;;;;;;;;;;;16.80;91.70;;;;;;4332632;33;20366;-78
2021/08/29 02:33:01;;;;;;;;;;;16.80;91.70;;;;;;4331687;33;43030;-78
2021/08/29 02:35:28;;;;;;;;;;;16.80;91.70;;;;;;4331626;33;43862;-78
2021/08/29 02:37:56;;;;;;;;;;;16.80;91.80;;;;;;4331225;33;44215;-78
2021/08/29 02:40:23;;;;;;;;;;;16.80;91.80;;;;;;4331330;33;43281;-78
2021/08/29 02:42:53;;;;;;;;;;;16.80;91.90;;;;;;4331145;33;43690;-78
2021/08/29 02:45:21;;;;;;;;;;;16.70;91.80;;;;;;4318128;33;42389;-78
2021/08/29 02:47:48;;;;;;;;;;;16.80;91.90;;;;;;4331447;33;44257;-77
2021/08/29 02:50:15;;;;;;;;;;;16.70;91.90;;;;;;4331430;33;44634;-78
2021/08/29 02:52:49;;;;;;;;;;;16.80;91.90;;;;;;4318254;33;43814;-78
2021/08/29 02:55:21;;;;;;;;;;;16.80;92.00;;;;;;4318301;33;43320;-78
2021/08/29 02:58:12;;;;;;;;;;;16.70;92.00;;;;;;4330914;33;42574;-78
2021/08/29 03:00:45;;;;;;;;;;;16.70;92.00;;;;;;4332213;33;20076;-78
2021/08/29 03:03:12;;;;;;;;;;;16.70;92.00;;;;;;4330914;33;44173;-78
2021/08/29 03:05:40;;;;;;;;;;;16.70;92.10;;;;;;4330754;33;43496;-78
2021/08/29 03:08:07;;;;;;;;;;;16.70;92.10;;;;;;4317960;33;43460;-78
2021/08/29 03:10:37;;;;;;;;;;;16.70;92.20;;;;;;4330783;33;42790;-78
2021/08/29 03:13:04;;;;;;;;;;;16.70;92.20;;;;;;4318094;33;44252;-78
2021/08/29 03:15:32;;;;;;;;;;;16.70;92.30;;;;;;4330854;33;43193;-78
2021/08/29 03:18:05;;;;;;;;;;;16.70;92.30;;;;;;4330618;33;43996;-77
2021/08/29 03:20:33;;;;;;;;;;;16.70;92.30;;;;;;4330725;33;43961;-78
2021/08/29 03:23:03;;;;;;;;;;;16.70;92.40;;;;;;4318098;33;44978;-77
2021/08/29 03:25:33;;;;;;;;;;;16.70;92.40;;;;;;4317692;33;45555;-78
2021/08/29 03:28:07;;;;;;;;;;;16.70;92.40;;;;;;4330644;33;44973;-78
2021/08/29 03:30:40;;;;;;;;;;;16.60;92.40;;;;;;4330659;33;43303;-78
2021/08/29 03:33:07;;;;;;;;;;;16.70;92.50;;;;;;4331073;33;43953;-78
2021/08/29 03:35:37;;;;;;;;;;;16.70;92.50;;;;;;4330397;33;44237;-79
2021/08/29 03:38:06;;;;;;;;;;;16.70;92.50;;;;;;4317772;33;44172;-78
2021/08/29 03:40:33;;;;;;;;;;;16.70;92.60;;;;;;4317510;33;44212;-77
2021/08/29 03:43:05;;;;;;;;;;;16.70;92.60;;;;;;4317135;33;44044;-77
2021/08/29 03:45:32;;;;;;;;;;;16.70;92.60;;;;;;4330981;33;43350;-77
2021/08/29 03:48:06;;;;;;;;;;;16.70;92.60;;;;;;4317166;33;44112;-77
2021/08/29 03:50:36;;;;;;;;;;;16.60;92.60;;;;;;4330320;33;42328;-78
2021/08/29 03:53:03;;;;;;;;;;;16.60;92.70;;;;;;4330339;33;42675;-78
2021/08/29 03:55:31;;;;;;;;;;;16.70;92.70;;;;;;4330100;33;44046;-78
2021/08/29 03:57:58;;;;;;;;;;;16.60;92.70;;;;;;4330352;33;42284;-78
2021/08/29 04:00:25;;;;;;;;;;;16.60;92.70;;;;;;4317161;33;44283;-77
2021/08/29 04:02:55;;;;;;;;;;;16.70;92.70;;;;;;4318036;33;20037;-78
2021/08/29 04:05:23;;;;;;;;;;;16.60;92.70;;;;;;4330056;33;43906;-78
2021/08/29 04:07:51;;;;;;;;;;;16.60;92.80;;;;;;4317029;33;43056;-77
2021/08/29 04:10:20;;;;;;;;;;;16.60;92.80;;;;;;4329984;33;44070;-78
2021/08/29 04:12:48;;;;;;;;;;;16.60;92.80;;;;;;4317019;33;44630;-78
2021/08/29 04:15:19;;;;;;;;;;;16.60;92.80;;;;;;4316898;33;43003;-77
2021/08/29 04:17:52;;;;;;;;;;;16.60;92.90;;;;;;4317440;33;43248;-78
2021/08/29 04:20:22;;;;;;;;;;;16.60;92.90;;;;;;4330691;33;44755;-78
2021/08/29 04:22:51;;;;;;;;;;;16.60;93.00;;;;;;4330269;33;43813;-78
2021/08/29 04:25:21;;;;;;;;;;;16.60;93.00;;;;;;4330356;33;43482;-78
2021/08/29 04:27:49;;;;;;;;;;;16.60;93.00;;;;;;4316892;33;44507;-78
2021/08/29 04:30:20;;;;;;;;;;;16.60;93.00;;;;;;4332903;33;43533;-78
2021/08/29 04:32:50;;;;;;;;;;;16.60;93.10;;;;;;4332986;33;42922;-78
2021/08/29 04:35:20;;;;;;;;;;;16.60;93.10;;;;;;4319981;33;43648;-77
2021/08/29 04:37:48;;;;;;;;;;;16.60;93.10;;;;;;4332833;33;42849;-78
2021/08/29 04:40:18;;;;;;;;;;;16.60;93.10;;;;;;4332835;33;44154;-78
2021/08/29 04:42:45;;;;;;;;;;;16.60;93.20;;;;;;4332787;33;42400;-78
2021/08/29 04:45:21;;;;;;;;;;;16.60;93.20;;;;;;4333493;33;43186;-78
2021/08/29 04:47:48;;;;;;;;;;;16.60;93.20;;;;;;4333562;33;44066;-78
2021/08/29 04:50:18;;;;;;;;;;;16.60;93.20;;;;;;4333222;33;42860;-78
2021/08/29 04:52:50;;;;;;;;;;;16.60;93.30;;;;;;4332750;33;43418;-78
2021/08/29 04:55:22;;;;;;;;;;;16.60;93.30;;;;;;4319408;33;44340;-78
2021/08/29 04:57:55;;;;;;;;;;;16.60;93.30;;;;;;4320020;33;43403;-78
2021/08/29 05:00:28;;;;;;;;;;;16.60;93.30;;;;;;4333209;33;44216;-78
2021/08/29 05:03:00;;;;;;;;;;;16.60;93.40;;;;;;4332637;33;43458;-78
2021/08/29 05:05:30;;;;;;;;;;;16.60;93.40;;;;;;4319799;33;43455;-78
2021/08/29 05:08:03;;;;;;;;;;;16.60;93.40;;;;;;4332848;33;43941;-78
2021/08/29 05:10:30;;;;;;;;;;;16.60;93.40;;;;;;4333034;33;44838;-79
2021/08/29 05:12:57;;;;;;;;;;;16.50;93.40;;;;;;4332560;33;42614;-78
2021/08/29 05:15:27;;;;;;;;;;;16.60;93.40;;;;;;4319498;33;43912;-78
2021/08/29 05:18:00;;;;;;;;;;;16.60;93.50;;;;;;4332231;33;44287;-78
2021/08/29 05:20:32;;;;;;;;;;;16.50;93.40;;;;;;4332733;33;44088;-79
2021/08/29 05:23:05;;;;;;;;;;;16.50;93.50;;;;;;4332551;33;42625;-78
2021/08/29 05:25:32;;;;;;;;;;;16.50;93.50;;;;;;4332646;33;43358;-79
2021/08/29 05:28:02;;;;;;;;;;;16.50;93.60;;;;;;4319098;33;43931;-78
2021/08/29 05:30:35;;;;;;;;;;;16.50;93.60;;;;;;4332655;33;44270;-78
2021/08/29 05:33:02;;;;;;;;;;;16.50;93.60;;;;;;4332643;33;43808;-79
2021/08/29 05:35:29;;;;;;;;;;;16.50;93.60;;;;;;4332784;33;43948;-78
2021/08/29 05:38:02;;;;;;;;;;;16.50;93.60;;;;;;4319242;33;44758;-78
2021/08/29 05:40:29;;;;;;;;;;;16.50;93.70;;;;;;4319235;33;44019;-79
2021/08/29 05:42:59;;;;;;;;;;;16.50;93.70;;;;;;4319124;33;42741;-78
2021/08/29 05:45:29;;;;;;;;;;;16.50;93.70;;;;;;4319176;33;43521;-78
2021/08/29 05:47:59;;;;;;;;;;;16.50;93.70;;;;;;4332367;33;44297;-78
2021/08/29 05:50:30;;;;;;;;;;;16.50;93.80;;;;;;4318877;33;44204;-78
2021/08/29 05:53:00;;;;;;;;;;;16.50;93.80;;;;;;4332485;33;43864;-78
2021/08/29 05:55:30;;;;;;;;;;;16.50;93.80;;;;;;4318947;33;43898;-78
2021/08/29 05:57:57;;;;;;;;;;;16.50;93.80;;;;;;4332123;33;42605;-79
2021/08/29 06:00:24;;;;;;;;;;;16.50;93.90;;;;;;4331870;33;43251;-79
2021/08/29 06:02:54;;;;;;;;;;;16.50;93.90;;;;;;4331921;33;43798;-78
2021/08/29 06:05:25;;;;;;;;;;;16.50;93.90;;;;;;4319605;33;20013;-79
2021/08/29 06:07:52;;;;;;;;;;;16.50;93.90;;;;;;4318774;33;44299;-78
2021/08/29 06:10:22;;;;;;;;;;;16.50;93.90;;;;;;4318754;33;42787;-78
2021/08/29 06:12:49;;;;;;;;;;;16.50;93.90;;;;;;4318842;33;43361;-79
2021/08/29 06:15:19;;;;;;;;;;;16.50;94.00;;;;;;4331698;33;43403;-79
2021/08/29 06:17:55;;;;;;;;;;;16.50;94.00;;;;;;4331726;33;42712;-78
2021/08/29 06:20:25;;;;;;;;;;;16.50;94.00;;;;;;4331623;33;43763;-79
2021/08/29 06:22:58;;;;;;;;;;;16.50;94.10;;;;;;4331974;33;44810;-79
2021/08/29 06:25:25;;;;;;;;;;;16.50;94.10;;;;;;4331540;33;42805;-79
2021/08/29 06:27:52;;;;;;;;;;;16.40;94.00;;;;;;4318348;33;43586;-78
2021/08/29 06:30:25;;;;;;;;;;;16.50;94.10;;;;;;4331452;33;43387;-78
2021/08/29 06:32:54;;;;;;;;;;;16.40;94.10;;;;;;4331784;33;44847;-78
2021/08/29 06:35:25;;;;;;;;;;;16.50;94.10;;;;;;4318923;33;29130;-79
2021/08/29 06:37:57;;;;;;;;;;;16.50;94.20;;;;;;4331634;33;44009;-78
2021/08/29 06:40:27;;;;;;;;;;;16.50;94.20;;;;;;4317966;33;45884;-78
2021/08/29 06:43:00;;;;;;;;;;;16.40;94.20;;;;;;4331274;33;43315;-79
2021/08/29 06:45:30;;;;;;;;;;;16.50;94.30;;;;;;4331753;33;43650;-79
2021/08/29 06:47:57;;;;;;;;;;;16.50;94.30;;;;;;4317931;33;42933;-79
2021/08/29 06:50:24;;;;;;;;;;;16.50;94.30;;;;;;4331383;33;44261;-79
2021/08/29 06:52:51;;;;;;;;;;;16.50;94.30;;;;;;4330699;33;43106;-78
2021/08/29 06:55:22;;;;;;;;;;;16.50;94.30;;;;;;4318270;33;45789;-78
2021/08/29 06:57:54;;;;;;;;;;;16.50;94.40;;;;;;4318538;33;43181;-78
2021/08/29 07:00:21;;;;;;;;;;;16.50;94.40;;;;;;4331270;33;43473;-78
2021/08/29 07:02:53;;;;;;;;;;;16.50;94.40;;;;;;4330682;33;44574;-78
2021/08/29 07:05:25;;;;;;;;;;;16.50;94.40;;;;;;4331326;33;44270;-78
2021/08/29 07:07:52;;;;;;;;;;;16.50;94.40;;;;;;4317960;33;43022;-78
2021/08/29 07:10:19;;;;;;;;;;;16.50;94.40;;;;;;4317850;33;42772;-78
2021/08/29 07:12:49;;;;;;;;;;;16.50;94.50;;;;;;4331157;33;44649;-78
2021/08/29 07:15:16;;;;;;;;;;;16.50;94.50;;;;;;4317948;33;44614;-78
2021/08/29 07:17:43;;;;;;;;;;;16.40;94.40;;;;;;4318179;33;44228;-79
2021/08/29 07:20:10;;;;;;;;;;;16.50;94.50;;;;;;4330683;33;43712;-78
2021/08/29 07:22:40;;;;;;;;;;;16.50;94.50;;;;;;4317621;33;43458;-78
2021/08/29 07:25:10;;;;;;;;;;;16.50;94.60;;;;;;4330537;33;44117;-78
2021/08/29 07:27:40;;;;;;;;;;;16.40;94.50;;;;;;4317896;33;42683;-78
2021/08/29 07:30:13;;;;;;;;;;;16.50;94.60;;;;;;4330944;33;44195;-78
2021/08/29 07:32:40;;;;;;;;;;;16.50;94.60;;;;;;4317417;33;43468;-78
2021/08/29 07:35:09;;;;;;;;;;;16.50;94.60;;;;;;4330846;33;42864;-78
2021/08/29 07:37:36;;;;;;;;;;;16.50;94.60;;;;;;4330656;33;44015;-78
2021/08/29 07:40:04;;;;;;;;;;;16.50;94.60;;;;;;4317429;33;44205;-78
2021/08/29 07:42:34;;;;;;;;;;;16.50;94.70;;;;;;4330851;33;43154;-78
2021/08/29 07:45:05;;;;;;;;;;;16.50;94.70;;;;;;4317368;33;44260;-78
2021/08/29 07:47:35;;;;;;;;;;;16.50;94.70;;;;;;4318025;33;44012;-78
2021/08/29 07:50:08;;;;;;;;;;;16.50;94.70;;;;;;4317298;33;44537;-78
2021/08/29 07:52:38;;;;;;;;;;;16.50;94.80;;;;;;4330587;33;43336;-77
2021/08/29 07:55:11;;;;;;;;;;;16.50;94.80;;;;;;4330680;33;44002;-78
2021/08/29 07:57:43;;;;;;;;;;;16.50;94.80;;;;;;4330344;33;44898;-78
2021/08/29 08:00:10;;;;;;;;;;;16.50;94.80;;;;;;4317186;33;44626;-78
2021/08/29 08:02:40;;;;;;;;;;;16.50;94.80;;;;;;4317089;33;44184;-78
2021/08/29 08:05:07;;;;;;;;;;;16.50;94.80;;;;;;4330451;33;43355;-77
2021/08/29 08:07:37;;;;;;;;;;;16.50;94.80;;;;;;4331580;33;20040;-77
2021/08/29 08:10:07;;;;;;;;;;;16.50;94.80;;;;;;4330553;33;43093;-78
2021/08/29 08:12:37;;;;;;;;;;;16.50;94.80;;;;;;4330226;33;44199;-77
2021/08/29 08:15:07;;;;;;;;;;;16.50;94.80;;;;;;4330312;33;43997;-77
2021/08/29 08:17:39;;;;;;;;;;;16.50;94.90;;;;;;4330469;33;43532;-77
2021/08/29 08:20:08;;;;;;;;;;;16.50;94.90;;;;;;4317351;33;42755;-77
2021/08/29 08:22:35;;;;;;;;;;;16.50;94.90;;;;;;4330057;33;43660;-77
2021/08/29 08:25:05;;;;;;;;;;;16.60;94.90;;;;;;4316958;33;43313;-76
2021/08/29 08:27:36;;;;;;;;;;;16.50;94.90;;;;;;4317656;33;43267;-78
2021/08/29 08:30:07;;;;;;;;;;;16.60;95.00;;;;;;4316950;33;43200;-76
2021/08/29 08:32:34;;;;;;;;;;;16.50;94.90;;;;;;4330499;33;43172;-77
2021/08/29 08:35:04;;;;;;;;;;;16.50;95.00;;;;;;4330239;33;44454;-76
2021/08/29 08:37:34;;;;;;;;;;;16.60;95.00;;;;;;4316836;33;44519;-77
2021/08/29 08:40:01;;;;;;;;;;;16.60;95.00;;;;;;4330096;33;43306;-77
2021/08/29 08:42:31;;;;;;;;;;;16.60;95.00;;;;;;4330457;33;43525;-76
2021/08/29 08:44:59;;;;;;;;;;;16.60;95.00;;;;;;4317069;33;42775;-76
2021/08/29 08:47:29;;;;;;;;;;;16.60;95.00;;;;;;4317109;33;43784;-77
2021/08/29 08:49:58;;;;;;;;;;;16.60;95.00;;;;;;4316834;33;44916;-79
2021/08/29 08:52:29;;;;;;;;;;;16.60;95.00;;;;;;4317548;33;43556;-78
2021/08/29 08:55:03;;;;;;;;;;;16.60;95.10;;;;;;4316954;33;43767;-77
2021/08/29 08:57:33;;;;;;;;;;;16.60;95.00;;;;;;4316664;33;44628;-76
2021/08/29 09:00:00;;;;;;;;;;;16.60;95.10;;;;;;4316945;33;43495;-77
2021/08/29 09:02:32;;;;;;;;;;;16.60;95.00;;;;;;4329802;33;43526;-77
2021/08/29 09:04:59;;;;;;;;;;;16.60;95.00;;;;;;4316690;33;43369;-77
2021/08/29 09:07:31;;;;;;;;;;;16.60;95.00;;;;;;4316641;33;43317;-77
2021/08/29 09:09:58;;;;;;;;;;;16.70;95.10;;;;;;4330249;33;44462;-76
2021/08/29 09:12:27;;;;;;;;;;;16.70;95.10;;;;;;4317240;33;43882;-77
2021/08/29 09:14:57;;;;;;;;;;;16.70;95.10;;;;;;4330860;33;42772;-77
2021/08/29 09:17:34;;;;;;;;;;;16.70;95.10;;;;;;4333114;33;43893;-77
2021/08/29 09:20:42;;;;;;;;;;;16.70;95.10;;;;;;4332934;33;43224;-77
2021/08/29 09:23:11;;;;;;;;;;;16.70;95.10;;;;;;4275221;33;43235;-77
2021/08/29 09:25:43;;;;;;;;;;;16.70;95.00;;;;;;4286907;33;42697;-77
2021/08/29 09:28:11;;;;;;;;;;;16.70;95.00;;;;;;4311278;33;43835;-77
2021/08/29 09:30:48;;;;;;;;;;;16.70;95.00;;;;;;4319268;33;43520;-77
2021/08/29 09:33:16;;;;;;;;;;;16.70;95.00;;;;;;4319609;33;42941;-77
2021/08/29 09:35:45;;;;;;;;;;;16.70;95.00;;;;;;4332136;33;42609;-77
2021/08/29 09:38:22;;;;;;;;;;;16.70;95.00;;;;;;4331996;33;44013;-78
2021/08/29 09:40:54;;;;;;;;;;;16.70;95.00;;;;;;4332662;33;45098;-77
2021/08/29 09:43:36;;;;;;;;;;;16.70;95.00;;;;;;4332388;33;44135;-77
2021/08/29 09:46:09;;;;;;;;;;;16.70;95.00;;;;;;4319267;33;43950;-77
2021/08/29 09:48:37;;;;;;;;;;;16.70;95.00;;;;;;4332053;33;43063;-77
2021/08/29 09:51:07;;;;;;;;;;;16.70;95.00;;;;;;4318842;33;42554;-76
2021/08/29 09:53:41;;;;;;;;;;;16.70;95.00;;;;;;4319070;33;44451;-78
2021/08/29 09:56:21;;;;;;;;;;;16.70;95.00;;;;;;4332319;33;42642;-76
2021/08/29 09:58:48;;;;;;;;;;;16.70;95.00;;;;;;4331817;33;42863;-77
2021/08/29 10:01:16;;;;;;;;;;;16.70;95.00;;;;;;4318777;33;42982;-76
2021/08/29 10:03:52;;;;;;;;;;;16.70;95.00;;;;;;4331822;33;43076;-77
2021/08/29 10:06:28;;;;;;;;;;;16.70;95.00;;;;;;4319080;33;42766;-77
2021/08/29 10:08:58;;;;;;;;;;;16.70;95.00;;;;;;4318988;33;43602;-77
2021/08/29 10:11:30;;;;;;;;;;;16.70;95.00;;;;;;4331621;33;43931;-77
2021/08/29 10:14:00;;;;;;;;;;;16.70;95.00;;;;;;4319470;33;43216;-77
2021/08/29 10:16:30;;;;;;;;;;;16.70;95.00;;;;;;4318724;33;44131;-77
2021/08/29 10:19:00;;;;;;;;;;;16.70;95.00;;;;;;4318295;33;43459;-77
2021/08/29 10:21:31;;;;;;;;;;;16.70;95.00;;;;;;4331910;33;43639;-77
2021/08/29 10:24:08;;;;;;;;;;;16.80;95.00;;;;;;4331766;33;42825;-77
2021/08/29 10:26:39;;;;;;;;;;;16.80;95.00;;;;;;4331182;33;43946;-77
2021/08/29 10:29:28;;;;;;;;;;;16.80;95.00;;;;;;4331537;33;43069;-76
2021/08/29 10:32:09;;;;;;;;;;;16.80;95.00;;;;;;4318355;33;42474;-77
2021/08/29 10:34:43;;;;;;;;;;;16.80;95.00;;;;;;4331853;33;45586;-76
2021/08/29 10:37:16;;;;;;;;;;;16.70;94.90;;;;;;4318777;33;43906;-77
2021/08/29 10:39:49;;;;;;;;;;;16.80;95.00;;;;;;4331203;33;42763;-77
2021/08/29 10:42:17;;;;;;;;;;;16.80;95.00;;;;;;4318682;33;44254;-77
2021/08/29 10:44:46;;;;;;;;;;;16.80;95.00;;;;;;4318475;33;41933;-77
2021/08/29 10:47:15;;;;;;;;;;;16.80;95.00;;;;;;4331702;33;44214;-78
2021/08/29 10:49:42;;;;;;;;;;;16.80;95.00;;;;;;4318166;33;44005;-77
2021/08/29 10:52:09;;;;;;;;;;;16.80;95.00;;;;;;4317780;33;44070;-76
2021/08/29 10:54:53;;;;;;;;;;;16.80;95.00;;;;;;4317879;33;42807;-77
2021/08/29 10:57:30;;;;;;;;;;;16.80;95.00;;;;;;4331117;33;44101;-77
2021/08/29 11:00:02;;;;;;;;;;;16.80;95.00;;;;;;4330892;33;43645;-77
2021/08/29 11:02:55;;;;;;;;;;;16.80;95.00;;;;;;4317752;33;43382;-77
2021/08/29 11:05:23;;;;;;;;;;;16.80;95.00;;;;;;4316583;33;43128;-77
2021/08/29 11:07:53;;;;;;;;;;;16.80;95.00;;;;;;4331489;33;43583;-76
2021/08/29 11:10:39;;;;;;;;;;;16.80;95.00;;;;;;4317817;33;42721;-78
2021/08/29 11:13:24;;;;;;;;;;;16.80;95.00;;;;;;4317962;33;45839;-77
2021/08/29 11:16:14;;;;;;;;;;;16.80;94.90;;;;;;4318035;33;44199;-77
2021/08/29 11:19:03;;;;;;;;;;;16.80;94.90;;;;;;4331320;33;44215;-77
2021/08/29 11:21:33;;;;;;;;;;;16.80;94.90;;;;;;4318066;33;43294;-77
2021/08/29 11:24:00;;;;;;;;;;;16.80;94.90;;;;;;4317928;33;44104;-78
2021/08/29 11:26:28;;;;;;;;;;;16.80;94.90;;;;;;4317905;33;43409;-77
2021/08/29 11:29:21;;;;;;;;;;;16.80;94.90;;;;;;4330926;33;46107;-77
2021/08/29 11:31:53;;;;;;;;;;;16.80;94.80;;;;;;4317437;33;44256;-77
2021/08/29 11:34:23;;;;;;;;;;;16.80;94.80;;;;;;4317931;33;43363;-77
2021/08/29 11:36:53;;;;;;;;;;;16.80;94.80;;;;;;4330719;33;44291;-77
2021/08/29 11:39:34;;;;;;;;;;;16.80;94.80;;;;;;4317088;33;44206;-76
2021/08/29 11:42:11;;;;;;;;;;;16.80;94.80;;;;;;4330942;33;43867;-76
2021/08/29 11:44:41;;;;;;;;;;;16.80;94.80;;;;;;4317945;33;43235;-77
2021/08/29 11:47:09;;;;;;;;;;;16.80;94.80;;;;;;4317674;33;43030;-77
2021/08/29 11:49:38;;;;;;;;;;;16.80;94.80;;;;;;4317398;33;43102;-76
2021/08/29 11:52:11;;;;;;;;;;;16.80;94.80;;;;;;4330339;33;43183;-77
2021/08/29 11:54:38;;;;;;;;;;;16.80;94.70;;;;;;4330839;33;43514;-76
2021/08/29 11:57:07;;;;;;;;;;;16.80;94.70;;;;;;4330363;33;43876;-76
2021/08/29 11:59:36;;;;;;;;;;;16.90;94.70;;;;;;4317028;33;43178;-77
2021/08/29 12:02:07;;;;;;;;;;;16.80;94.70;;;;;;4330343;33;43056;-76
2021/08/29 12:04:34;;;;;;;;;;;16.80;94.70;;;;;;4330552;33;43658;-78
2021/08/29 12:07:05;;;;;;;;;;;16.80;94.70;;;;;;4330519;33;43270;-77
2021/08/29 12:09:42;;;;;;;;;;;16.80;94.70;;;;;;4317460;33;44158;-77
2021/08/29 12:12:16;;;;;;;;;;;16.80;94.80;;;;;;4330679;33;43303;-76
2021/08/29 12:14:44;;;;;;;;;;;16.80;94.80;;;;;;4331196;33;19997;-77
2021/08/29 12:17:17;;;;;;;;;;;16.80;94.80;;;;;;4317035;33;43861;-77
2021/08/29 12:19:45;;;;;;;;;;;16.80;94.80;;;;;;4317410;33;44220;-76
2021/08/29 12:22:12;;;;;;;;;;;16.80;94.80;;;;;;4330373;33;42730;-77
2021/08/29 12:24:43;;;;;;;;;;;16.80;94.80;;;;;;4317024;33;44339;-78
2021/08/29 12:27:11;;;;;;;;;;;16.80;94.90;;;;;;4330685;33;43937;-77
2021/08/29 12:29:44;;;;;;;;;;;16.80;94.90;;;;;;4316854;33;43023;-77
2021/08/29 12:32:13;;;;;;;;;;;16.80;94.90;;;;;;4330707;33;43987;-77
2021/08/29 12:34:40;;;;;;;;;;;16.80;94.90;;;;;;4330298;33;42822;-77
2021/08/29 12:37:12;;;;;;;;;;;16.80;95.00;;;;;;4316722;33;44537;-77
2021/08/29 12:39:53;;;;;;;;;;;16.80;95.00;;;;;;4317243;33;43845;-77
2021/08/29 12:42:25;;;;;;;;;;;16.80;95.00;;;;;;4330023;33;43636;-77
2021/08/29 12:44:54;;;;;;;;;;;16.80;94.90;;;;;;4331234;33;20001;-77
2021/08/29 12:47:25;;;;;;;;;;;16.80;95.00;;;;;;4330445;33;44209;-77
2021/08/29 12:49:52;;;;;;;;;;;16.80;94.90;;;;;;4331420;33;46464;-78
2021/08/29 12:52:31;;;;;;;;;;;16.80;94.90;;;;;;4333354;33;43767;-77
2021/08/29 12:55:00;;;;;;;;;;;16.90;95.00;;;;;;4332731;33;43220;-77
2021/08/29 12:57:33;;;;;;;;;;;16.80;95.00;;;;;;4319516;33;43441;-78
2021/08/29 13:00:03;;;;;;;;;;;16.80;95.00;;;;;;4332763;33;44143;-78
2021/08/29 13:02:35;;;;;;;;;;;16.80;95.00;;;;;;4319354;33;43172;-77
2021/08/29 13:05:03;;;;;;;;;;;16.80;95.00;;;;;;4333101;33;44028;-77
2021/08/29 13:07:45;;;;;;;;;;;16.80;95.00;;;;;;4332390;33;44203;-77
2021/08/29 13:10:15;;;;;;;;;;;16.80;95.10;;;;;;4319275;33;43356;-78
2021/08/29 13:12:42;;;;;;;;;;;16.80;95.10;;;;;;4332436;33;43258;-78
2021/08/29 13:15:33;;;;;;;;;;;16.80;95.10;;;;;;4333796;33;20063;-78
2021/08/29 13:18:00;;;;;;;;;;;16.80;95.20;;;;;;4333041;33;43527;-77
2021/08/29 13:20:41;;;;;;;;;;;16.80;95.20;;;;;;4332243;33;43250;-78
2021/08/29 13:23:22;;;;;;;;;;;16.80;95.20;;;;;;4332441;33;44161;-79
2021/08/29 13:25:54;;;;;;;;;;;16.80;95.20;;;;;;4319138;33;43584;-79
2021/08/29 13:28:21;;;;;;;;;;;16.80;95.20;;;;;;4332441;33;43973;-78
2021/08/29 13:31:01;;;;;;;;;;;16.80;95.20;;;;;;4332445;33;42198;-77
2021/08/29 13:33:28;;;;;;;;;;;16.80;95.30;;;;;;4332270;33;42944;-78
2021/08/29 13:36:02;;;;;;;;;;;16.80;95.30;;;;;;4319092;33;44108;-78
2021/08/29 13:38:31;;;;;;;;;;;16.80;95.30;;;;;;4319400;33;44751;-78
2021/08/29 13:41:03;;;;;;;;;;;16.80;95.30;;;;;;4331953;33;44253;-78
2021/08/29 13:43:31;;;;;;;;;;;16.80;95.30;;;;;;4332111;33;42957;-78
2021/08/29 13:46:03;;;;;;;;;;;16.80;95.30;;;;;;4319851;33;20006;-78
2021/08/29 13:48:34;;;;;;;;;;;16.80;95.30;;;;;;4332405;33;43471;-77
2021/08/29 13:51:06;;;;;;;;;;;16.80;95.30;;;;;;4332679;33;43470;-78
2021/08/29 13:53:35;;;;;;;;;;;16.80;95.40;;;;;;4319204;33;42627;-78
2021/08/29 13:56:03;;;;;;;;;;;16.80;95.50;;;;;;4332213;33;43450;-78
2021/08/29 13:58:30;;;;;;;;;;;16.80;95.40;;;;;;4332063;33;44229;-78
2021/08/29 14:01:00;;;;;;;;;;;16.80;95.40;;;;;;4331528;33;44895;-78
2021/08/29 14:03:28;;;;;;;;;;;16.80;95.40;;;;;;4331748;33;42778;-78
2021/08/29 14:05:58;;;;;;;;;;;16.80;95.40;;;;;;4332287;33;43313;-78
2021/08/29 14:08:25;;;;;;;;;;;16.80;95.50;;;;;;4318836;33;41962;-78
2021/08/29 14:10:55;;;;;;;;;;;16.80;95.50;;;;;;4319283;33;43077;-79
2021/08/29 14:13:22;;;;;;;;;;;16.80;95.50;;;;;;4318473;33;43332;-79
2021/08/29 14:15:50;;;;;;;;;;;16.80;95.50;;;;;;4332038;33;43340;-79
2021/08/29 14:18:17;;;;;;;;;;;16.80;95.50;;;;;;4332184;33;42992;-78
2021/08/29 14:20:44;;;;;;;;;;;16.80;95.50;;;;;;4331438;33;43037;-78
2021/08/29 14:23:14;;;;;;;;;;;16.80;95.50;;;;;;4331456;33;44193;-79
2021/08/29 14:25:44;;;;;;;;;;;16.80;95.50;;;;;;4331940;33;44594;-78
2021/08/29 14:28:14;;;;;;;;;;;16.80;95.50;;;;;;4318689;33;43978;-79
2021/08/29 14:30:41;;;;;;;;;;;16.80;95.50;;;;;;4331942;33;44215;-79
2021/08/29 14:33:10;;;;;;;;;;;16.80;95.60;;;;;;4318522;33;42977;-79
2021/08/29 14:35:37;;;;;;;;;;;16.80;95.60;;;;;;4318409;33;42876;-79
2021/08/29 14:38:04;;;;;;;;;;;16.80;95.60;;;;;;4331290;33;43059;-79